sensor_id;sensor_type;location;lat;lon;timestamp;P1;durP1;ratioP1;P2;durP2;ratioP2
72674;SDS011;60752;53.962;9.614;2022-08-21T00:03:32;7.57;;;2.20;;
72674;SDS011;60752;53.962;9.614;2022-08-21T00:08:34;11.63;;;2.90;;
72674;SDS011;60752;53.962;9.614;2022-08-21T00:13:35;6.30;;;2.83;;
72674;SDS011;60752;53.962;9.614;2022-08-21T00:18:36;6.40;;;2.35;;
72674;SDS011;60752;53.962;9.614;2022-08-21T00:23:38;5.17;;;2.27;;
72674;SDS011;60752;53.962;9.614;2022-08-21T00:28:38;14.83;;;2.60;;
72674;SDS011;60752;53.962;9.614;2022-08-21T00:33:39;5.95;;;2.40;;
72674;SDS011;60752;53.962;9.614;2022-08-21T00:38:40;5.13;;;2.50;;
72674;SDS011;60752;53.962;9.614;2022-08-21T00:43:41;7.30;;;2.60;;
72674;SDS011;60752;53.962;9.614;2022-08-21T00:48:41;6.70;;;2.23;;
72674;SDS011;60752;53.962;9.614;2022-08-21T00:53:43;6.83;;;2.33;;
72674;SDS011;60752;53.962;9.614;2022-08-21T00:58:45;8.02;;;2.22;;
72674;SDS011;60752;53.962;9.614;2022-08-21T01:03:46;4.30;;;2.05;;
72674;SDS011;60752;53.962;9.614;2022-08-21T01:08:48;5.80;;;1.80;;
72674;SDS011;60752;53.962;9.614;2022-08-21T01:13:48;6.07;;;2.40;;
72674;SDS011;60752;53.962;9.614;2022-08-21T01:18:49;9.17;;;2.03;;
72674;SDS011;60752;53.962;9.614;2022-08-21T01:23:52;6.03;;;1.92;;
72674;SDS011;60752;53.962;9.614;2022-08-21T01:28:54;4.37;;;2.20;;
72674;SDS011;60752;53.962;9.614;2022-08-21T01:33:58;5.85;;;2.13;;
72674;SDS011;60752;53.962;9.614;2022-08-21T01:39:00;3.40;;;1.60;;
72674;SDS011;60752;53.962;9.614;2022-08-21T01:44:02;5.85;;;2.55;;
72674;SDS011;60752;53.962;9.614;2022-08-21T01:49:03;4.70;;;1.90;;
72674;SDS011;60752;53.962;9.614;2022-08-21T01:54:05;6.10;;;2.40;;
72674;SDS011;60752;53.962;9.614;2022-08-21T01:59:06;5.23;;;2.10;;
72674;SDS011;60752;53.962;9.614;2022-08-21T02:04:08;6.22;;;2.33;;
72674;SDS011;60752;53.962;9.614;2022-08-21T02:09:11;5.68;;;2.20;;
72674;SDS011;60752;53.962;9.614;2022-08-21T02:14:13;4.57;;;1.80;;
72674;SDS011;60752;53.962;9.614;2022-08-21T02:19:15;4.65;;;2.15;;
72674;SDS011;60752;53.962;9.614;2022-08-21T02:24:17;4.45;;;1.73;;
72674;SDS011;60752;53.962;9.614;2022-08-21T02:29:17;4.47;;;1.90;;
72674;SDS011;60752;53.962;9.614;2022-08-21T02:34:18;4.30;;;1.95;;
72674;SDS011;60752;53.962;9.614;2022-08-21T02:39:20;4.97;;;2.00;;
72674;SDS011;60752;53.962;9.614;2022-08-21T02:44:20;5.53;;;2.30;;
72674;SDS011;60752;53.962;9.614;2022-08-21T02:49:20;5.23;;;2.30;;
72674;SDS011;60752;53.962;9.614;2022-08-21T02:54:22;5.70;;;1.97;;
72674;SDS011;60752;53.962;9.614;2022-08-21T02:59:23;5.75;;;2.40;;
72674;SDS011;60752;53.962;9.614;2022-08-21T03:04:23;5.97;;;2.30;;
72674;SDS011;60752;53.962;9.614;2022-08-21T03:09:25;6.00;;;2.30;;
72674;SDS011;60752;53.962;9.614;2022-08-21T03:14:26;6.10;;;2.75;;
72674;SDS011;60752;53.962;9.614;2022-08-21T03:19:26;6.10;;;3.07;;
72674;SDS011;60752;53.962;9.614;2022-08-21T03:24:28;8.73;;;3.20;;
72674;SDS011;60752;53.962;9.614;2022-08-21T03:29:28;6.10;;;2.95;;
72674;SDS011;60752;53.962;9.614;2022-08-21T03:34:29;5.87;;;3.23;;
72674;SDS011;60752;53.962;9.614;2022-08-21T03:39:31;6.53;;;3.27;;
72674;SDS011;60752;53.962;9.614;2022-08-21T03:44:31;11.20;;;4.00;;
72674;SDS011;60752;53.962;9.614;2022-08-21T03:49:32;6.43;;;3.53;;
72674;SDS011;60752;53.962;9.614;2022-08-21T03:54:33;9.57;;;3.40;;
72674;SDS011;60752;53.962;9.614;2022-08-21T03:59:34;7.85;;;3.58;;
72674;SDS011;60752;53.962;9.614;2022-08-21T04:04:34;10.13;;;4.23;;
72674;SDS011;60752;53.962;9.614;2022-08-21T04:09:36;11.67;;;4.57;;
72674;SDS011;60752;53.962;9.614;2022-08-21T04:14:37;7.82;;;4.10;;
72674;SDS011;60752;53.962;9.614;2022-08-21T04:19:37;9.60;;;4.60;;
72674;SDS011;60752;53.962;9.614;2022-08-21T04:24:39;8.00;;;4.97;;
72674;SDS011;60752;53.962;9.614;2022-08-21T04:29:39;10.63;;;4.63;;
72674;SDS011;60752;53.962;9.614;2022-08-21T04:34:40;10.87;;;4.83;;
72674;SDS011;60752;53.962;9.614;2022-08-21T04:39:42;8.80;;;4.53;;
72674;SDS011;60752;53.962;9.614;2022-08-21T04:44:42;9.13;;;4.40;;
72674;SDS011;60752;53.962;9.614;2022-08-21T04:49:43;7.87;;;4.53;;
72674;SDS011;60752;53.962;9.614;2022-08-21T04:54:45;8.00;;;4.30;;
72674;SDS011;60752;53.962;9.614;2022-08-21T04:59:47;11.90;;;4.13;;
72674;SDS011;60752;53.962;9.614;2022-08-21T05:04:51;9.80;;;4.80;;
72674;SDS011;60752;53.962;9.614;2022-08-21T05:09:54;7.72;;;4.30;;
72674;SDS011;60752;53.962;9.614;2022-08-21T05:14:55;9.25;;;4.65;;
72674;SDS011;60752;53.962;9.614;2022-08-21T05:19:55;10.20;;;4.60;;
72674;SDS011;60752;53.962;9.614;2022-08-21T05:24:57;9.20;;;4.33;;
72674;SDS011;60752;53.962;9.614;2022-08-21T05:29:58;9.90;;;4.23;;
72674;SDS011;60752;53.962;9.614;2022-08-21T05:34:58;11.13;;;4.00;;
72674;SDS011;60752;53.962;9.614;2022-08-21T05:40:01;12.33;;;4.47;;
72674;SDS011;60752;53.962;9.614;2022-08-21T05:45:02;7.60;;;3.78;;
72674;SDS011;60752;53.962;9.614;2022-08-21T05:50:03;6.95;;;3.70;;
72674;SDS011;60752;53.962;9.614;2022-08-21T05:55:06;9.87;;;4.27;;
72674;SDS011;60752;53.962;9.614;2022-08-21T06:00:08;13.32;;;3.80;;
72674;SDS011;60752;53.962;9.614;2022-08-21T06:05:09;7.55;;;4.05;;
72674;SDS011;60752;53.962;9.614;2022-08-21T06:10:11;7.90;;;4.00;;
72674;SDS011;60752;53.962;9.614;2022-08-21T06:15:11;7.60;;;4.30;;
72674;SDS011;60752;53.962;9.614;2022-08-21T06:20:12;8.93;;;4.23;;
72674;SDS011;60752;53.962;9.614;2022-08-21T06:25:13;6.67;;;4.23;;
72674;SDS011;60752;53.962;9.614;2022-08-21T06:30:14;8.97;;;4.00;;
72674;SDS011;60752;53.962;9.614;2022-08-21T06:35:14;8.13;;;3.70;;
72674;SDS011;60752;53.962;9.614;2022-08-21T06:40:16;8.53;;;3.40;;
72674;SDS011;60752;53.962;9.614;2022-08-21T06:45:17;7.68;;;3.22;;
72674;SDS011;60752;53.962;9.614;2022-08-21T06:50:17;7.50;;;3.50;;
72674;SDS011;60752;53.962;9.614;2022-08-21T06:55:19;8.20;;;3.33;;
72674;SDS011;60752;53.962;9.614;2022-08-21T07:00:19;7.18;;;3.03;;
72674;SDS011;60752;53.962;9.614;2022-08-21T07:05:20;6.50;;;2.73;;
72674;SDS011;60752;53.962;9.614;2022-08-21T07:10:22;7.10;;;3.03;;
72674;SDS011;60752;53.962;9.614;2022-08-21T07:15:23;6.07;;;2.90;;
72674;SDS011;60752;53.962;9.614;2022-08-21T07:20:24;6.40;;;2.50;;
72674;SDS011;60752;53.962;9.614;2022-08-21T07:25:26;7.67;;;2.60;;
72674;SDS011;60752;53.962;9.614;2022-08-21T07:30:26;7.70;;;2.50;;
72674;SDS011;60752;53.962;9.614;2022-08-21T07:35:27;8.60;;;2.23;;
72674;SDS011;60752;53.962;9.614;2022-08-21T07:40:29;7.57;;;2.03;;
72674;SDS011;60752;53.962;9.614;2022-08-21T07:45:29;7.43;;;2.17;;
72674;SDS011;60752;53.962;9.614;2022-08-21T07:50:30;6.35;;;1.75;;
72674;SDS011;60752;53.962;9.614;2022-08-21T07:55:31;6.70;;;1.90;;
72674;SDS011;60752;53.962;9.614;2022-08-21T08:00:32;8.30;;;1.77;;
72674;SDS011;60752;53.962;9.614;2022-08-21T08:05:33;6.57;;;2.00;;
72674;SDS011;60752;53.962;9.614;2022-08-21T08:10:35;6.90;;;1.90;;
72674;SDS011;60752;53.962;9.614;2022-08-21T08:15:38;4.00;;;1.37;;
72674;SDS011;60752;53.962;9.614;2022-08-21T08:20:38;6.43;;;2.03;;
72674;SDS011;60752;53.962;9.614;2022-08-21T08:25:40;5.33;;;1.23;;
72674;SDS011;60752;53.962;9.614;2022-08-21T08:30:41;5.67;;;1.80;;
72674;SDS011;60752;53.962;9.614;2022-08-21T08:35:41;5.73;;;1.43;;
72674;SDS011;60752;53.962;9.614;2022-08-21T08:40:46;6.95;;;1.80;;
72674;SDS011;60752;53.962;9.614;2022-08-21T08:45:50;5.60;;;1.70;;
72674;SDS011;60752;53.962;9.614;2022-08-21T08:50:56;8.57;;;1.80;;
72674;SDS011;60752;53.962;9.614;2022-08-21T08:56:01;6.03;;;1.88;;
72674;SDS011;60752;53.962;9.614;2022-08-21T09:01:05;7.35;;;1.50;;
72674;SDS011;60752;53.962;9.614;2022-08-21T09:06:19;5.70;;;1.90;;
72674;SDS011;60752;53.962;9.614;2022-08-21T09:11:34;8.00;;;1.70;;
72674;SDS011;60752;53.962;9.614;2022-08-21T09:16:44;5.03;;;1.58;;
72674;SDS011;60752;53.962;9.614;2022-08-21T09:21:48;14.27;;;2.63;;
72674;SDS011;60752;53.962;9.614;2022-08-21T09:27:02;13.30;;;2.00;;
72674;SDS011;60752;53.962;9.614;2022-08-21T09:32:09;6.20;;;1.77;;
72674;SDS011;60752;53.962;9.614;2022-08-21T09:37:15;7.60;;;2.05;;
72674;SDS011;60752;53.962;9.614;2022-08-21T09:42:22;7.67;;;2.07;;
72674;SDS011;60752;53.962;9.614;2022-08-21T09:47:25;6.95;;;1.75;;
72674;SDS011;60752;53.962;9.614;2022-08-21T09:52:26;6.57;;;1.70;;
72674;SDS011;60752;53.962;9.614;2022-08-21T09:57:28;5.93;;;2.03;;
72674;SDS011;60752;53.962;9.614;2022-08-21T10:02:31;6.88;;;1.50;;
72674;SDS011;60752;53.962;9.614;2022-08-21T10:07:36;5.10;;;1.50;;
72674;SDS011;60752;53.962;9.614;2022-08-21T10:12:42;5.75;;;1.48;;
72674;SDS011;60752;53.962;9.614;2022-08-21T10:17:52;4.22;;;1.15;;
72674;SDS011;60752;53.962;9.614;2022-08-21T10:23:02;4.30;;;1.07;;
72674;SDS011;60752;53.962;9.614;2022-08-21T10:28:10;4.18;;;1.27;;
72674;SDS011;60752;53.962;9.614;2022-08-21T10:33:21;5.85;;;1.50;;
72674;SDS011;60752;53.962;9.614;2022-08-21T10:38:35;5.47;;;1.40;;
72674;SDS011;60752;53.962;9.614;2022-08-21T10:43:56;5.53;;;1.30;;
72674;SDS011;60752;53.962;9.614;2022-08-21T10:49:06;4.75;;;1.40;;
72674;SDS011;60752;53.962;9.614;2022-08-21T10:54:18;4.43;;;1.50;;
72674;SDS011;60752;53.962;9.614;2022-08-21T10:59:31;4.00;;;1.33;;
72674;SDS011;60752;53.962;9.614;2022-08-21T11:04:40;11.30;;;5.05;;
72674;SDS011;60752;53.962;9.614;2022-08-21T11:09:49;8.95;;;3.50;;
72674;SDS011;60752;53.962;9.614;2022-08-21T11:14:54;4.97;;;1.50;;
72674;SDS011;60752;53.962;9.614;2022-08-21T11:20:00;6.05;;;1.30;;
72674;SDS011;60752;53.962;9.614;2022-08-21T11:25:05;3.38;;;1.05;;
72674;SDS011;60752;53.962;9.614;2022-08-21T11:30:12;4.00;;;0.90;;
72674;SDS011;60752;53.962;9.614;2022-08-21T11:35:15;4.90;;;1.20;;
72674;SDS011;60752;53.962;9.614;2022-08-21T11:40:31;3.45;;;0.90;;
72674;SDS011;60752;53.962;9.614;2022-08-21T11:45:42;4.80;;;1.10;;
72674;SDS011;60752;53.962;9.614;2022-08-21T11:50:46;4.27;;;1.20;;
72674;SDS011;60752;53.962;9.614;2022-08-21T11:55:49;3.65;;;1.08;;
72674;SDS011;60752;53.962;9.614;2022-08-21T12:00:57;3.15;;;0.90;;
72674;SDS011;60752;53.962;9.614;2022-08-21T12:06:01;3.63;;;1.20;;
72674;SDS011;60752;53.962;9.614;2022-08-21T12:11:06;3.05;;;0.80;;
72674;SDS011;60752;53.962;9.614;2022-08-21T12:16:11;5.78;;;1.00;;
72674;SDS011;60752;53.962;9.614;2022-08-21T12:21:19;5.20;;;1.10;;
72674;SDS011;60752;53.962;9.614;2022-08-21T12:26:23;3.47;;;1.00;;
72674;SDS011;60752;53.962;9.614;2022-08-21T12:31:27;4.00;;;1.00;;
72674;SDS011;60752;53.962;9.614;2022-08-21T12:36:33;4.45;;;1.27;;
72674;SDS011;60752;53.962;9.614;2022-08-21T12:41:44;2.93;;;0.80;;
72674;SDS011;60752;53.962;9.614;2022-08-21T12:46:54;2.72;;;0.98;;
72674;SDS011;60752;53.962;9.614;2022-08-21T12:52:01;3.13;;;0.80;;
72674;SDS011;60752;53.962;9.614;2022-08-21T12:57:06;3.70;;;1.10;;
72674;SDS011;60752;53.962;9.614;2022-08-21T13:02:11;2.95;;;1.00;;
72674;SDS011;60752;53.962;9.614;2022-08-21T13:07:19;3.42;;;1.10;;
72674;SDS011;60752;53.962;9.614;2022-08-21T13:12:25;3.70;;;1.33;;
72674;SDS011;60752;53.962;9.614;2022-08-21T13:17:29;4.13;;;0.93;;
72674;SDS011;60752;53.962;9.614;2022-08-21T13:22:31;6.75;;;1.30;;
72674;SDS011;60752;53.962;9.614;2022-08-21T13:27:32;3.77;;;0.80;;
72674;SDS011;60752;53.962;9.614;2022-08-21T13:32:35;4.50;;;1.00;;
72674;SDS011;60752;53.962;9.614;2022-08-21T13:37:39;4.67;;;0.93;;
72674;SDS011;60752;53.962;9.614;2022-08-21T13:42:40;7.05;;;1.25;;
72674;SDS011;60752;53.962;9.614;2022-08-21T13:47:45;4.00;;;1.02;;
72674;SDS011;60752;53.962;9.614;2022-08-21T13:52:47;6.13;;;1.20;;
72674;SDS011;60752;53.962;9.614;2022-08-21T13:58:00;2.85;;;0.90;;
72674;SDS011;60752;53.962;9.614;2022-08-21T14:03:04;5.10;;;1.00;;
72674;SDS011;60752;53.962;9.614;2022-08-21T14:08:08;3.73;;;0.97;;
72674;SDS011;60752;53.962;9.614;2022-08-21T14:13:21;5.20;;;1.07;;
72674;SDS011;60752;53.962;9.614;2022-08-21T14:18:30;5.50;;;1.10;;
72674;SDS011;60752;53.962;9.614;2022-08-21T14:23:31;3.35;;;0.80;;
72674;SDS011;60752;53.962;9.614;2022-08-21T14:28:32;3.73;;;1.00;;
72674;SDS011;60752;53.962;9.614;2022-08-21T14:33:35;3.43;;;1.13;;
72674;SDS011;60752;53.962;9.614;2022-08-21T14:38:36;3.72;;;1.33;;
72674;SDS011;60752;53.962;9.614;2022-08-21T14:43:39;276.52;;;252.68;;
72674;SDS011;60752;53.962;9.614;2022-08-21T14:48:41;307.43;;;275.97;;
72674;SDS011;60752;53.962;9.614;2022-08-21T14:53:41;268.87;;;249.13;;
72674;SDS011;60752;53.962;9.614;2022-08-21T14:58:43;18.20;;;16.13;;
72674;SDS011;60752;53.962;9.614;2022-08-21T15:03:46;26.53;;;18.43;;
72674;SDS011;60752;53.962;9.614;2022-08-21T15:08:48;11.50;;;7.78;;
72674;SDS011;60752;53.962;9.614;2022-08-21T15:13:49;106.90;;;96.70;;
72674;SDS011;60752;53.962;9.614;2022-08-21T15:18:56;364.15;;;320.08;;
72674;SDS011;60752;53.962;9.614;2022-08-21T15:23:56;198.43;;;136.83;;
72674;SDS011;60752;53.962;9.614;2022-08-21T15:28:57;62.40;;;40.40;;
72674;SDS011;60752;53.962;9.614;2022-08-21T15:34:00;15.17;;;11.90;;
72674;SDS011;60752;53.962;9.614;2022-08-21T15:39:01;11.57;;;3.20;;
72674;SDS011;60752;53.962;9.614;2022-08-21T15:44:02;18.60;;;7.70;;
72674;SDS011;60752;53.962;9.614;2022-08-21T15:49:04;7.60;;;2.95;;
72674;SDS011;60752;53.962;9.614;2022-08-21T15:54:05;7.00;;;2.13;;
72674;SDS011;60752;53.962;9.614;2022-08-21T15:59:06;5.90;;;1.50;;
72674;SDS011;60752;53.962;9.614;2022-08-21T16:04:11;6.47;;;1.60;;
72674;SDS011;60752;53.962;9.614;2022-08-21T16:09:18;6.53;;;1.60;;
72674;SDS011;60752;53.962;9.614;2022-08-21T16:14:18;5.50;;;1.53;;
72674;SDS011;60752;53.962;9.614;2022-08-21T16:19:20;6.40;;;1.80;;
72674;SDS011;60752;53.962;9.614;2022-08-21T16:24:21;8.35;;;1.70;;
72674;SDS011;60752;53.962;9.614;2022-08-21T16:29:21;7.03;;;1.43;;
72674;SDS011;60752;53.962;9.614;2022-08-21T16:34:24;3.83;;;1.53;;
72674;SDS011;60752;53.962;9.614;2022-08-21T16:39:25;6.55;;;1.90;;
72674;SDS011;60752;53.962;9.614;2022-08-21T16:44:25;8.40;;;2.07;;
72674;SDS011;60752;53.962;9.614;2022-08-21T16:49:27;5.07;;;1.50;;
72674;SDS011;60752;53.962;9.614;2022-08-21T16:54:27;11.40;;;2.33;;
72674;SDS011;60752;53.962;9.614;2022-08-21T16:59:28;9.37;;;1.50;;
72674;SDS011;60752;53.962;9.614;2022-08-21T17:04:30;7.73;;;1.83;;
72674;SDS011;60752;53.962;9.614;2022-08-21T17:09:30;9.23;;;2.10;;
72674;SDS011;60752;53.962;9.614;2022-08-21T17:14:30;6.97;;;2.00;;
72674;SDS011;60752;53.962;9.614;2022-08-21T17:19:32;16.10;;;2.13;;
72674;SDS011;60752;53.962;9.614;2022-08-21T17:24:33;7.65;;;1.90;;
72674;SDS011;60752;53.962;9.614;2022-08-21T17:29:37;10.27;;;2.10;;
72674;SDS011;60752;53.962;9.614;2022-08-21T17:34:40;7.53;;;1.90;;
72674;SDS011;60752;53.962;9.614;2022-08-21T17:39:41;7.45;;;1.90;;
72674;SDS011;60752;53.962;9.614;2022-08-21T17:44:42;5.57;;;1.90;;
72674;SDS011;60752;53.962;9.614;2022-08-21T17:49:46;5.07;;;1.92;;
72674;SDS011;60752;53.962;9.614;2022-08-21T17:54:46;5.15;;;1.60;;
72674;SDS011;60752;53.962;9.614;2022-08-21T17:59:47;7.63;;;1.43;;
72674;SDS011;60752;53.962;9.614;2022-08-21T18:04:49;5.13;;;1.30;;
72674;SDS011;60752;53.962;9.614;2022-08-21T18:09:49;6.15;;;1.52;;
72674;SDS011;60752;53.962;9.614;2022-08-21T18:14:50;8.93;;;1.47;;
72674;SDS011;60752;53.962;9.614;2022-08-21T18:19:51;5.10;;;1.30;;
72674;SDS011;60752;53.962;9.614;2022-08-21T18:24:52;8.57;;;1.60;;
72674;SDS011;60752;53.962;9.614;2022-08-21T18:29:53;5.23;;;1.60;;
72674;SDS011;60752;53.962;9.614;2022-08-21T18:34:57;6.90;;;1.80;;
72674;SDS011;60752;53.962;9.614;2022-08-21T18:39:59;5.63;;;1.70;;
72674;SDS011;60752;53.962;9.614;2022-08-21T18:45:00;6.80;;;1.80;;
72674;SDS011;60752;53.962;9.614;2022-08-21T18:50:03;5.87;;;1.53;;
72674;SDS011;60752;53.962;9.614;2022-08-21T18:55:04;7.28;;;1.63;;
72674;SDS011;60752;53.962;9.614;2022-08-21T19:00:06;6.82;;;1.30;;
72674;SDS011;60752;53.962;9.614;2022-08-21T19:05:11;8.10;;;1.60;;
72674;SDS011;60752;53.962;9.614;2022-08-21T19:10:14;9.30;;;1.42;;
72674;SDS011;60752;53.962;9.614;2022-08-21T19:15:17;5.47;;;1.63;;
72674;SDS011;60752;53.962;9.614;2022-08-21T19:20:23;6.80;;;1.50;;
72674;SDS011;60752;53.962;9.614;2022-08-21T19:25:26;6.53;;;1.50;;
72674;SDS011;60752;53.962;9.614;2022-08-21T19:30:27;4.18;;;1.35;;
72674;SDS011;60752;53.962;9.614;2022-08-21T19:35:29;10.63;;;1.90;;
72674;SDS011;60752;53.962;9.614;2022-08-21T19:40:29;8.00;;;1.87;;
72674;SDS011;60752;53.962;9.614;2022-08-21T19:45:30;7.75;;;2.10;;
72674;SDS011;60752;53.962;9.614;2022-08-21T19:50:38;8.23;;;1.70;;
72674;SDS011;60752;53.962;9.614;2022-08-21T19:55:40;6.22;;;2.15;;
72674;SDS011;60752;53.962;9.614;2022-08-21T20:00:41;6.07;;;1.75;;
72674;SDS011;60752;53.962;9.614;2022-08-21T20:05:43;5.67;;;1.60;;
72674;SDS011;60752;53.962;9.614;2022-08-21T20:10:43;6.27;;;1.87;;
72674;SDS011;60752;53.962;9.614;2022-08-21T20:15:44;6.93;;;1.73;;
72674;SDS011;60752;53.962;9.614;2022-08-21T20:20:46;6.13;;;1.80;;
72674;SDS011;60752;53.962;9.614;2022-08-21T20:25:46;8.30;;;1.60;;
72674;SDS011;60752;53.962;9.614;2022-08-21T20:30:47;9.47;;;1.67;;
72674;SDS011;60752;53.962;9.614;2022-08-21T20:35:49;7.77;;;1.80;;
72674;SDS011;60752;53.962;9.614;2022-08-21T20:40:50;6.28;;;1.60;;
72674;SDS011;60752;53.962;9.614;2022-08-21T20:45:51;5.25;;;1.60;;
72674;SDS011;60752;53.962;9.614;2022-08-21T20:50:56;7.83;;;1.90;;
72674;SDS011;60752;53.962;9.614;2022-08-21T20:56:08;8.85;;;2.13;;
72674;SDS011;60752;53.962;9.614;2022-08-21T21:01:12;7.07;;;2.10;;
72674;SDS011;60752;53.962;9.614;2022-08-21T21:06:15;7.40;;;1.70;;
72674;SDS011;60752;53.962;9.614;2022-08-21T21:11:22;7.73;;;2.53;;
72674;SDS011;60752;53.962;9.614;2022-08-21T21:16:25;9.18;;;2.00;;
72674;SDS011;60752;53.962;9.614;2022-08-21T21:21:32;8.18;;;2.08;;
72674;SDS011;60752;53.962;9.614;2022-08-21T21:26:35;7.77;;;2.47;;
72674;SDS011;60752;53.962;9.614;2022-08-21T21:31:40;5.50;;;1.80;;
72674;SDS011;60752;53.962;9.614;2022-08-21T21:36:43;6.07;;;2.10;;
72674;SDS011;60752;53.962;9.614;2022-08-21T21:41:51;8.13;;;2.10;;
72674;SDS011;60752;53.962;9.614;2022-08-21T21:47:00;6.90;;;1.90;;
72674;SDS011;60752;53.962;9.614;2022-08-21T21:52:07;9.17;;;2.73;;
72674;SDS011;60752;53.962;9.614;2022-08-21T21:57:27;6.45;;;2.22;;
72674;SDS011;60752;53.962;9.614;2022-08-21T22:02:38;5.22;;;1.80;;
72674;SDS011;60752;53.962;9.614;2022-08-21T22:07:50;9.17;;;2.17;;
72674;SDS011;60752;53.962;9.614;2022-08-21T22:12:56;8.27;;;1.90;;
72674;SDS011;60752;53.962;9.614;2022-08-21T22:18:04;7.95;;;2.30;;
72674;SDS011;60752;53.962;9.614;2022-08-21T22:23:10;9.48;;;2.13;;
72674;SDS011;60752;53.962;9.614;2022-08-21T22:28:17;5.43;;;1.80;;
72674;SDS011;60752;53.962;9.614;2022-08-21T22:33:21;6.93;;;1.95;;
72674;SDS011;60752;53.962;9.614;2022-08-21T22:38:29;5.25;;;1.77;;
72674;SDS011;60752;53.962;9.614;2022-08-21T22:43:32;8.63;;;2.10;;
72674;SDS011;60752;53.962;9.614;2022-08-21T22:48:33;7.68;;;1.88;;
72674;SDS011;60752;53.962;9.614;2022-08-21T22:53:39;7.53;;;2.07;;
72674;SDS011;60752;53.962;9.614;2022-08-21T22:58:50;8.93;;;1.90;;
72674;SDS011;60752;53.962;9.614;2022-08-21T23:03:53;6.60;;;1.90;;
72674;SDS011;60752;53.962;9.614;2022-08-21T23:08:57;9.38;;;2.22;;
72674;SDS011;60752;53.962;9.614;2022-08-21T23:13:59;7.40;;;2.20;;
72674;SDS011;60752;53.962;9.614;2022-08-21T23:19:02;7.47;;;1.73;;
72674;SDS011;60752;53.962;9.614;2022-08-21T23:24:15;8.68;;;1.90;;
72674;SDS011;60752;53.962;9.614;2022-08-21T23:29:35;5.72;;;1.90;;
72674;SDS011;60752;53.962;9.614;2022-08-21T23:34:41;7.20;;;2.03;;
72674;SDS011;60752;53.962;9.614;2022-08-21T23:39:51;7.30;;;2.17;;
72674;SDS011;60752;53.962;9.614;2022-08-21T23:44:59;6.43;;;2.13;;
72674;SDS011;60752;53.962;9.614;2022-08-21T23:50:16;4.55;;;1.83;;
72674;SDS011;60752;53.962;9.614;2022-08-21T23:55:27;7.43;;;2.07;;
